Time;durP1;ratioP1;P1;durP2;ratioP2;P2;SDS_P1;SDS_P2;PMS_P1;PMS_P2;Temp;Humidity;BMP_temperature;BMP_pressure;BME280_temperature;BME280_humidity;BME280_pressure;Samples;Min_cycle;Max_cycle;Signal;HPM_P1;HPM_P2
2021/12/02 00:01:39;;;;;;;0.13;0.13;;;6.20;99.90;;;;;;4958311;29;20118;-83
2021/12/02 00:04:05;;;;;;;0.10;0.10;;;5.00;99.90;;;;;;4960659;29;20041;-84
2021/12/02 00:06:36;;;;;;;0.13;0.13;;;2.70;99.90;;;;;;4960440;29;20038;-83
2021/12/02 00:09:03;;;;;;;0.10;0.10;;;3.70;99.90;;;;;;4960230;28;20038;-83
2021/12/02 00:11:30;;;;;;;0.30;0.30;;;4.60;99.90;;;;;;4960768;28;20026;-83
2021/12/02 00:13:58;;;;;;;0.10;0.10;;;4.60;99.90;;;;;;4961046;28;20020;-83
2021/12/02 00:21:50;;;;;;;0.50;0.30;;;4.50;99.90;;;;;;4976202;29;20046;-83
2021/12/02 00:24:19;;;;;;;0.10;0.10;;;4.50;99.90;;;;;;4960066;28;20070;-84
2021/12/02 00:26:49;;;;;;;0.30;0.30;;;5.30;99.90;;;;;;4959249;28;20035;-83
2021/12/02 00:29:19;;;;;;;1.30;0.40;;;4.50;99.90;;;;;;4959458;29;20259;-83
2021/12/02 00:31:46;;;;;;;0.20;0.20;;;4.50;99.90;;;;;;4959892;28;20031;-83
2021/12/02 00:34:13;;;;;;;0.40;0.40;;;4.80;99.90;;;;;;4959324;28;20008;-83
2021/12/02 00:36:39;;;;;;;0.30;0.20;;;5.60;99.90;;;;;;4977091;28;20035;-84
2021/12/02 00:39:09;;;;;;;0.25;0.22;;;4.60;99.90;;;;;;4939770;29;20013;-84
2021/12/02 00:41:35;;;;;;;1.67;0.43;;;2.40;99.90;;;;;;4939567;29;20039;-84
2021/12/02 00:44:01;;;;;;;0.10;0.10;;;4.70;99.90;;;;;;4923243;29;20604;-84
2021/12/02 00:46:32;;;;;;;0.20;0.20;;;7.40;99.90;;;;;;4921751;29;20032;-84
2021/12/02 00:49:01;;;;;;;0.20;0.20;;;4.60;99.90;;;;;;4920232;29;20012;-84
2021/12/02 00:51:28;;;;;;;0.73;0.73;;;4.70;99.90;;;;;;4922008;29;20020;-84
2021/12/02 00:53:56;;;;;;;0.10;0.10;;;4.80;99.90;;;;;;4921914;29;20039;-82
2021/12/02 00:56:24;;;;;;;0.32;0.32;;;4.90;99.90;;;;;;4937088;29;20028;-83
2021/12/02 00:58:50;;;;;;;0.10;0.10;;;4.90;99.90;;;;;;4934297;29;20032;-82
2021/12/02 01:01:20;;;;;;;2.83;0.20;;;4.70;99.90;;;;;;4929022;29;20088;-82
2021/12/02 01:03:49;;;;;;;0.47;0.20;;;4.80;99.90;;;;;;4908994;29;20056;-81
2021/12/02 01:06:15;;;;;;;0.40;0.40;;;4.60;99.90;;;;;;4914799;29;20044;-82
2021/12/02 01:08:41;;;;;;;0.45;0.45;;;4.60;99.90;;;;;;4929075;29;20053;-82
2021/12/02 01:11:09;;;;;;;0.47;0.40;;;4.50;99.90;;;;;;4925583;29;20028;-81
2021/12/02 01:13:35;;;;;;;0.10;0.10;;;4.60;99.90;;;;;;4909408;29;20031;-82
2021/12/02 01:16:01;;;;;;;0.20;0.20;;;4.50;99.90;;;;;;4910420;29;20035;-82
2021/12/02 01:18:27;;;;;;;0.10;0.10;;;4.40;99.90;;;;;;4910289;29;20052;-82
2021/12/02 01:20:53;;;;;;;0.30;0.30;;;4.40;99.90;;;;;;4912176;29;20036;-82
2021/12/02 01:23:21;;;;;;;0.50;0.20;;;4.30;99.90;;;;;;4928708;29;20075;-82
2021/12/02 01:25:58;;;;;;;0.15;0.15;;;4.20;99.90;;;;;;4914797;29;20024;-82
2021/12/02 01:28:24;;;;;;;0.28;0.28;;;4.20;99.90;;;;;;4930109;29;20032;-83
2021/12/02 01:30:54;;;;;;;0.45;0.45;;;4.20;99.90;;;;;;4913969;29;20055;-82
2021/12/02 01:33:21;;;;;;;0.30;0.30;;;4.20;99.90;;;;;;4915359;29;20047;-83
2021/12/02 01:35:54;;;;;;;0.25;0.25;;;4.20;99.90;;;;;;4914491;29;20153;-83
2021/12/02 01:38:23;;;;;;;0.10;0.10;;;4.20;99.90;;;;;;4932467;29;20032;-82
2021/12/02 01:40:49;;;;;;;0.20;0.20;;;4.20;99.90;;;;;;4917605;29;20234;-82
2021/12/02 01:43:18;;;;;;;0.10;0.10;;;4.20;99.90;;;;;;4919417;29;20040;-83
2021/12/02 01:45:43;;;;;;;0.30;0.30;;;4.30;99.90;;;;;;4921102;29;20020;-83
2021/12/02 01:48:11;;;;;;;0.10;0.10;;;4.20;99.90;;;;;;4917343;29;20047;-83
2021/12/02 01:50:39;;;;;;;0.13;0.13;;;4.10;99.90;;;;;;4920525;29;20028;-82
2021/12/02 01:53:06;;;;;;;0.75;0.40;;;4.10;99.90;;;;;;4917815;29;20544;-82
2021/12/02 01:55:35;;;;;;;0.30;0.30;;;4.00;99.90;;;;;;4916679;29;20032;-83
2021/12/02 01:58:03;;;;;;;0.73;0.60;;;3.80;99.90;;;;;;4915820;29;20028;-82
2021/12/02 02:00:43;;;;;;;1.70;0.55;;;3.70;99.90;;;;;;4913612;29;20028;-83
2021/12/02 02:03:14;;;;;;;0.10;0.10;;;3.60;99.90;;;;;;4916585;29;20139;-82
2021/12/02 02:05:39;;;;;;;3.60;0.40;;;3.60;99.90;;;;;;4918390;29;20488;-83
2021/12/02 02:08:21;;;;;;;0.20;0.20;;;3.60;99.90;;;;;;4916651;29;20100;-82
2021/12/02 02:10:46;;;;;;;0.10;0.10;;;3.60;99.90;;;;;;4936733;29;20035;-83
2021/12/02 02:13:15;;;;;;;0.13;0.13;;;3.60;99.90;;;;;;4919146;29;20099;-82
2021/12/02 02:15:45;;;;;;;0.20;0.20;;;3.70;99.90;;;;;;4913101;29;20043;-82
2021/12/02 02:18:20;;;;;;;0.17;0.17;;;3.70;99.90;;;;;;4925216;29;20436;-82
2021/12/02 02:21:08;;;;;;;1.48;0.25;;;3.70;99.90;;;;;;4910081;29;20028;-82
2021/12/02 02:23:38;;;;;;;0.35;0.15;;;3.80;99.90;;;;;;4929746;29;20043;-82
2021/12/02 02:26:06;;;;;;;0.10;0.10;;;3.80;99.90;;;;;;4910642;29;20028;-82
2021/12/02 02:28:32;;;;;;;0.20;0.20;;;3.90;99.90;;;;;;4910183;29;20107;-82
2021/12/02 02:30:58;;;;;;;0.40;0.40;;;3.90;99.90;;;;;;4909880;29;20497;-82
2021/12/02 02:33:24;;;;;;;0.20;0.20;;;4.00;99.90;;;;;;4910620;29;20100;-82
2021/12/02 02:35:50;;;;;;;0.47;0.38;;;4.10;99.90;;;;;;4910059;29;20097;-82
2021/12/02 02:38:16;;;;;;;1.75;0.35;;;4.20;99.90;;;;;;4912285;29;20036;-82
2021/12/02 02:40:46;;;;;;;0.98;0.65;;;4.20;99.90;;;;;;4907624;29;20394;-82
2021/12/02 02:43:20;;;;;;;0.52;0.52;;;4.20;99.90;;;;;;4912068;29;20188;-82
2021/12/02 02:45:46;;;;;;;0.30;0.30;;;4.20;99.90;;;;;;4914400;29;20028;-83
2021/12/02 02:48:11;;;;;;;0.40;0.40;;;4.20;99.90;;;;;;4913113;29;20032;-82
2021/12/02 02:50:37;;;;;;;0.35;0.35;;;4.20;99.90;;;;;;4928787;29;20028;-82
2021/12/02 02:53:16;;;;;;;0.50;0.50;;;4.10;99.90;;;;;;4914853;29;20032;-83
2021/12/02 02:55:45;;;;;;;0.88;0.88;;;4.00;99.90;;;;;;4912343;29;20024;-82
2021/12/02 03:00:46;;;;;;;1.98;0.55;;;4.00;99.90;;;;;;4924107;29;20024;-82
2021/12/02 03:08:46;;;;;;;0.22;0.22;;;3.80;99.90;;;;;;4924128;29;20040;-82
2021/12/02 03:11:13;;;;;;;0.20;0.20;;;3.90;99.90;;;;;;4907542;29;20024;-82
2021/12/02 03:13:48;;;;;;;3.40;0.28;;;3.90;99.90;;;;;;4924974;29;20064;-82
2021/12/02 03:18:58;;;;;;;0.28;0.20;;;3.90;99.90;;;;;;4925867;29;20043;-82
2021/12/02 03:21:24;;;;;;;0.20;0.20;;;4.00;99.90;;;;;;4923739;29;20032;-82
2021/12/02 03:23:52;;;;;;;0.40;0.40;;;4.10;99.90;;;;;;4910478;29;20032;-82
2021/12/02 03:26:18;;;;;;;4.50;0.35;;;4.10;99.90;;;;;;4910332;29;20028;-82
2021/12/02 03:28:47;;;;;;;0.30;0.30;;;4.10;99.90;;;;;;4907853;29;20163;-82
2021/12/02 03:31:13;;;;;;;0.10;0.10;;;4.10;99.90;;;;;;4908748;29;20069;-82
2021/12/02 03:33:41;;;;;;;10.15;0.40;;;4.10;99.90;;;;;;4912254;29;20028;-80
2021/12/02 03:36:06;;;;;;;0.20;0.20;;;4.10;99.90;;;;;;4905625;29;20054;-80
2021/12/02 03:38:32;;;;;;;0.13;0.13;;;4.10;99.90;;;;;;4915207;29;20059;-80
2021/12/02 03:40:58;;;;;;;0.40;0.40;;;4.20;99.90;;;;;;4937219;29;20020;-82
2021/12/02 03:43:23;;;;;;;1.95;0.30;;;4.20;99.90;;;;;;4938919;29;20035;-81
2021/12/02 03:45:50;;;;;;;1.35;0.20;;;4.20;99.90;;;;;;4938356;29;20024;-81
2021/12/02 03:48:15;;;;;;;0.55;0.40;;;4.20;99.90;;;;;;4939242;29;20024;-82
2021/12/02 03:50:41;;;;;;;0.65;0.47;;;4.20;99.90;;;;;;4921387;29;20466;-80
2021/12/02 03:53:06;;;;;;;2.75;0.57;;;4.30;99.90;;;;;;4921521;29;20028;-81
2021/12/02 03:55:32;;;;;;;0.17;0.17;;;4.30;99.90;;;;;;4937614;29;20076;-80
2021/12/02 03:57:58;;;;;;;0.22;0.22;;;4.30;99.90;;;;;;4937667;29;20024;-82
2021/12/02 04:00:24;;;;;;;5.63;0.65;;;4.30;99.90;;;;;;4939518;29;20040;-82
2021/12/02 04:02:51;;;;;;;0.10;0.10;;;4.40;99.90;;;;;;4939061;29;20036;-81
2021/12/02 04:05:16;;;;;;;0.17;0.17;;;4.30;99.90;;;;;;4939027;29;20016;-82
2021/12/02 04:07:42;;;;;;;2.28;0.40;;;4.40;99.90;;;;;;4938902;29;20027;-80
2021/12/02 04:10:08;;;;;;;0.20;0.20;;;4.30;99.90;;;;;;4923033;29;20044;-81
2021/12/02 04:13:24;;;;;;;2.72;0.63;;;4.30;99.90;;;;;;4938859;29;20028;-81
2021/12/02 04:15:24;;;;;;;0.10;0.10;;;4.30;99.90;;;;;;4932647;29;20036;-81
2021/12/02 04:17:51;;;;;;;3.85;0.50;;;4.30;99.90;;;;;;4940362;29;20043;-80
2021/12/02 04:20:19;;;;;;;15.35;0.75;;;4.30;99.90;;;;;;4921920;29;20501;-81
2021/12/02 04:22:45;;;;;;;0.40;0.40;;;4.40;99.90;;;;;;4937256;29;20043;-80
2021/12/02 04:25:12;;;;;;;2.03;0.40;;;4.40;99.90;;;;;;4903997;29;20118;-81
2021/12/02 04:27:38;;;;;;;1.65;0.60;;;4.30;99.90;;;;;;4903965;29;20031;-82
2021/12/02 04:30:06;;;;;;;0.65;0.65;;;4.20;99.90;;;;;;4910174;29;20028;-82
2021/12/02 04:32:32;;;;;;;0.30;0.30;;;4.20;99.90;;;;;;4922929;29;20024;-80
2021/12/02 04:34:58;;;;;;;1.65;0.40;;;4.10;99.90;;;;;;4927616;29;20631;-82
2021/12/02 04:37:24;;;;;;;3.17;0.25;;;4.00;99.90;;;;;;4918304;29;20078;-81
2021/12/02 04:39:50;;;;;;;0.20;0.20;;;4.00;99.90;;;;;;4937239;29;20035;-80
2021/12/02 04:42:15;;;;;;;1.05;0.40;;;3.90;99.90;;;;;;4934789;29;20040;-79
2021/12/02 04:44:41;;;;;;;1.55;0.20;;;3.80;99.90;;;;;;4933712;29;20031;-79
2021/12/02 04:47:08;;;;;;;2.28;0.32;;;3.70;99.90;;;;;;4951738;29;20046;-79
2021/12/02 04:49:35;;;;;;;1.00;0.17;;;3.70;99.90;;;;;;4935376;29;20031;-80
2021/12/02 04:52:01;;;;;;;0.20;0.20;;;3.60;99.90;;;;;;4935824;29;20053;-81
2021/12/02 04:54:26;;;;;;;0.20;0.20;;;3.60;99.90;;;;;;4935681;29;20472;-80
2021/12/02 04:56:52;;;;;;;0.68;0.40;;;3.60;99.90;;;;;;4933933;29;20232;-80
2021/12/02 04:59:18;;;;;;;0.10;0.10;;;3.60;99.90;;;;;;4933997;29;20617;-81
2021/12/02 05:01:43;;;;;;;1.58;0.30;;;3.50;99.90;;;;;;4932657;29;20042;-82
2021/12/02 05:04:09;;;;;;;0.93;0.20;;;3.40;99.90;;;;;;4933303;29;20031;-80
2021/12/02 05:06:35;;;;;;;0.10;0.10;;;3.30;99.90;;;;;;4932056;29;20028;-80
2021/12/02 05:09:01;;;;;;;0.20;0.20;;;3.20;99.90;;;;;;4951049;29;20035;-80
2021/12/02 05:11:27;;;;;;;0.20;0.20;;;3.10;99.90;;;;;;4932660;29;20407;-80
2021/12/02 05:13:53;;;;;;;0.03;0.03;;;3.10;99.90;;;;;;4950881;29;20026;-80
2021/12/02 05:16:19;;;;;;;0.28;0.22;;;3.00;99.90;;;;;;4933265;29;20024;-80
2021/12/02 05:18:44;;;;;;;0.10;0.10;;;3.00;99.90;;;;;;4950493;29;20051;-79
2021/12/02 05:21:10;;;;;;;0.10;0.10;;;3.00;99.90;;;;;;4932739;29;20470;-80
2021/12/02 05:23:36;;;;;;;0.10;0.10;;;3.00;99.90;;;;;;4933750;29;20291;-79
2021/12/02 05:26:02;;;;;;;3.30;0.57;;;3.00;99.90;;;;;;4951970;29;20144;-79
2021/12/02 05:28:28;;;;;;;0.00;0.00;;;3.10;99.90;;;;;;4933047;29;20483;-80
2021/12/02 05:30:53;;;;;;;1.45;0.15;;;3.00;99.90;;;;;;4932794;29;20032;-79
2021/12/02 05:33:19;;;;;;;0.10;0.10;;;3.10;99.90;;;;;;4933702;29;20531;-79
2021/12/02 05:35:45;;;;;;;0.15;0.15;;;3.10;99.90;;;;;;4932431;29;20055;-80
2021/12/02 05:38:11;;;;;;;0.10;0.10;;;3.00;99.90;;;;;;4921165;29;20131;-80
2021/12/02 05:40:37;;;;;;;0.20;0.20;;;3.20;99.90;;;;;;4930732;29;20167;-79
2021/12/02 05:43:03;;;;;;;0.10;0.10;;;3.20;99.90;;;;;;4931141;29;20119;-79
2021/12/02 05:45:29;;;;;;;1.20;0.25;;;3.10;99.90;;;;;;4913904;29;20460;-79
2021/12/02 05:47:55;;;;;;;0.10;0.10;;;3.00;99.90;;;;;;4930374;29;20500;-79
2021/12/02 05:50:21;;;;;;;0.08;0.08;;;3.20;99.90;;;;;;4913622;29;20028;-79
2021/12/02 05:52:46;;;;;;;8.07;0.40;;;3.20;99.90;;;;;;4933574;29;20044;-79
2021/12/02 05:55:12;;;;;;;0.85;0.70;;;3.20;99.90;;;;;;4917211;29;20418;-79
2021/12/02 05:57:38;;;;;;;1.17;0.57;;;3.20;99.90;;;;;;4916921;29;20224;-79
2021/12/02 06:00:08;;;;;;;0.40;0.20;;;3.20;99.90;;;;;;4916709;29;20524;-79
2021/12/02 06:02:36;;;;;;;;;;;3.20;99.90;;;;;;4917244;29;20047;-79
2021/12/02 06:05:06;;;;;;;0.45;0.28;;;3.20;99.90;;;;;;4919258;29;19942;-78
2021/12/02 06:07:32;;;;;;;;;;;3.10;99.90;;;;;;4937931;29;20118;-80
2021/12/02 06:09:57;;;;;;;0.10;0.10;;;3.20;99.90;;;;;;4918816;29;19910;-79
2021/12/02 06:12:23;;;;;;;0.85;0.10;;;3.30;99.90;;;;;;4918659;29;20030;-80
2021/12/02 06:14:50;;;;;;;0.32;0.32;;;3.30;99.90;;;;;;4921014;29;20522;-79
2021/12/02 06:17:15;;;;;;;0.20;0.20;;;3.30;99.90;;;;;;4919401;29;20074;-79
2021/12/02 06:19:41;;;;;;;0.10;0.10;;;3.20;99.90;;;;;;4916595;29;20754;-79
2021/12/02 06:22:08;;;;;;;0.13;0.13;;;3.10;99.90;;;;;;4919202;29;20111;-81
2021/12/02 06:24:48;;;;;;;1.27;0.10;;;3.10;99.90;;;;;;4937417;29;20027;-82
2021/12/02 06:27:15;;;;;;;0.25;0.25;;;3.20;99.90;;;;;;4941463;28;20032;-84
2021/12/02 06:29:41;;;;;;;0.10;0.10;;;3.30;99.90;;;;;;4961676;28;20030;-84
2021/12/02 06:32:08;;;;;;;0.30;0.30;;;3.40;99.90;;;;;;4944481;29;20111;-84
2021/12/02 06:34:39;;;;;;;0.45;0.45;;;3.50;99.90;;;;;;4944348;28;20044;-85
2021/12/02 06:37:05;;;;;;;0.10;0.10;;;3.60;99.90;;;;;;4944326;29;20032;-84
2021/12/02 06:39:31;;;;;;;1.00;0.40;;;3.60;99.90;;;;;;4941629;28;20038;-85
2021/12/02 06:41:57;;;;;;;0.28;0.28;;;2.20;99.90;;;;;;4941616;29;20047;-84
2021/12/02 06:44:27;;;;;;;0.10;0.10;;;3.70;99.90;;;;;;4942283;29;20263;-84
2021/12/02 06:46:53;;;;;;;2.55;0.65;;;;;;;;;;4937626;29;20036;-82
2021/12/02 06:49:19;;;;;;;1.00;0.82;;;3.60;99.90;;;;;;4935851;29;20552;-86
2021/12/02 06:51:45;;;;;;;1.65;0.68;;;3.90;99.90;;;;;;4941680;29;20012;-83
2021/12/02 06:54:11;;;;;;;0.30;0.30;;;2.60;99.90;;;;;;4942503;29;20036;-84
2021/12/02 06:56:38;;;;;;;0.52;0.28;;;6.20;99.90;;;;;;4942888;29;20087;-84
2021/12/02 06:59:04;;;;;;;0.65;0.40;;;4.00;99.90;;;;;;4941324;29;20028;-84
2021/12/02 07:01:43;;;;;;;0.10;0.10;;;0.60;99.90;;;;;;4941821;29;20031;-84
2021/12/02 07:04:12;;;;;;;0.10;0.10;;;6.40;99.90;;;;;;4943344;29;20079;-84
2021/12/02 07:06:39;;;;;;;0.20;0.20;;;1.30;99.90;;;;;;4926863;29;20035;-83
2021/12/02 07:09:11;;;;;;;0.55;0.20;;;3.70;99.90;;;;;;4959236;28;20028;-85
2021/12/02 07:11:43;;;;;;;7.20;0.35;;;3.00;99.90;;;;;;4942442;28;20028;-84
2021/12/02 07:14:19;;;;;;;2.20;1.15;;;2.90;99.90;;;;;;4943063;28;20075;-83
2021/12/02 07:16:54;;;;;;;0.80;0.43;;;2.90;99.90;;;;;;4939779;29;20043;-83
2021/12/02 07:19:20;;;;;;;1.00;0.30;;;2.90;99.90;;;;;;4942399;29;20018;-83
2021/12/02 07:21:46;;;;;;;0.20;0.20;;;2.70;99.90;;;;;;4954544;23;20039;-84
2021/12/02 07:24:15;;;;;;;0.10;0.10;;;3.00;99.90;;;;;;4943426;28;20016;-84
2021/12/02 07:26:43;;;;;;;1.45;0.13;;;2.90;99.90;;;;;;4958901;28;20051;-84
2021/12/02 07:29:11;;;;;;;3.70;0.28;;;4.00;99.90;;;;;;4942292;28;20024;-83
2021/12/02 07:31:40;;;;;;;0.30;0.30;;;0.70;99.90;;;;;;4958998;28;20043;-84
2021/12/02 07:34:10;;;;;;;0.30;0.20;;;2.70;99.90;;;;;;5027067;23;20065;-83
2021/12/02 07:36:40;;;;;;;2.53;0.20;;;2.70;99.90;;;;;;4880857;29;20042;-84
2021/12/02 07:39:11;;;;;;;2.30;0.30;;;4.10;99.90;;;;;;4882874;29;20029;-84
2021/12/02 07:41:40;;;;;;;0.30;0.30;;;2.90;99.90;;;;;;4883070;29;20052;-82
2021/12/02 07:44:11;;;;;;;2.72;0.30;;;2.10;99.90;;;;;;5207132;23;20097;-85
2021/12/02 07:46:37;;;;;;;0.30;0.30;;;-0.40;99.90;;;;;;5003418;23;20086;-80
2021/12/02 07:49:03;;;;;;;7.47;1.00;;;2.80;99.90;;;;;;4906143;29;20013;-83
2021/12/02 07:51:30;;;;;;;0.85;0.70;;;2.90;99.90;;;;;;4922757;29;20032;-83
2021/12/02 07:54:01;;;;;;;0.10;0.10;;;3.00;99.90;;;;;;4923063;29;20013;-83
2021/12/02 07:56:29;;;;;;;0.45;0.32;;;3.10;99.90;;;;;;4906996;29;20035;-83
2021/12/02 07:58:55;;;;;;;0.47;0.30;;;3.20;99.90;;;;;;4922740;29;20031;-82
2021/12/02 08:01:20;;;;;;;0.60;0.60;;;3.50;99.90;;;;;;4905580;29;20016;-83
2021/12/02 08:03:52;;;;;;;1.00;0.70;;;3.40;99.90;;;;;;4921751;29;20016;-82
2021/12/02 08:06:18;;;;;;;0.38;0.38;;;3.90;99.90;;;;;;4901764;29;20099;-82
2021/12/02 08:08:46;;;;;;;5.60;0.82;;;3.70;99.90;;;;;;4898418;29;20870;-83
2021/12/02 08:11:21;;;;;;;0.22;0.22;;;4.20;99.90;;;;;;4899074;29;20017;-83
2021/12/02 08:13:54;;;;;;;0.57;0.57;;;3.70;99.90;;;;;;4931209;29;20013;-81
2021/12/02 08:16:21;;;;;;;2.40;0.60;;;;;;;;;;4899762;29;20020;-83
2021/12/02 08:18:46;;;;;;;6.53;0.73;;;4.00;99.90;;;;;;4913024;29;20100;-84
2021/12/02 08:21:12;;;;;;;0.30;0.30;;;4.70;99.90;;;;;;4890587;29;20036;-82
2021/12/02 08:23:38;;;;;;;12.35;0.95;;;4.10;99.90;;;;;;4894510;29;20032;-82
2021/12/02 08:26:04;;;;;;;0.80;0.80;;;4.10;99.90;;;;;;4882771;29;20024;-79
2021/12/02 08:28:30;;;;;;;4.70;0.65;;;4.20;99.90;;;;;;4902597;29;20096;-82
2021/12/02 08:30:57;;;;;;;3.83;1.10;;;4.20;99.90;;;;;;4900051;29;20039;-78
2021/12/02 08:33:24;;;;;;;8.57;1.15;;;4.30;99.90;;;;;;4896609;29;20186;-82
2021/12/02 08:35:54;;;;;;;0.95;0.75;;;4.20;99.90;;;;;;4887627;29;20035;-82
2021/12/02 08:38:30;;;;;;;0.88;0.40;;;4.30;99.90;;;;;;4914489;29;20157;-83
2021/12/02 08:40:58;;;;;;;2.03;0.60;;;4.40;99.90;;;;;;4905168;29;20064;-78
2021/12/02 08:43:24;;;;;;;0.35;0.35;;;4.20;99.90;;;;;;4903337;29;20060;-79
2021/12/02 08:45:50;;;;;;;7.22;2.03;;;4.30;99.90;;;;;;4904805;29;20040;-79
2021/12/02 08:48:15;;;;;;;1.75;0.47;;;4.30;99.90;;;;;;4901140;29;20794;-79
2021/12/02 08:50:41;;;;;;;1.17;0.43;;;4.30;99.90;;;;;;4918168;29;20024;-79
2021/12/02 08:53:08;;;;;;;2.08;0.85;;;4.40;99.90;;;;;;4918742;29;20084;-80
2021/12/02 08:55:35;;;;;;;2.78;0.70;;;4.40;99.90;;;;;;4903910;29;20028;-78
2021/12/02 08:58:09;;;;;;;1.67;0.30;;;4.50;99.90;;;;;;5033880;23;20028;-84
2021/12/02 09:00:39;;;;;;;1.25;0.30;;;4.40;99.90;;;;;;4922409;28;20064;-80
2021/12/02 09:03:06;;;;;;;;;;;4.40;99.90;;;;;;4915220;29;20047;-82
2021/12/02 09:05:32;;;;;;;4.50;0.70;;;4.50;99.90;;;;;;5093527;23;19985;-81
2021/12/02 09:08:16;;;;;;;0.75;0.50;;;4.50;99.90;;;;;;4936965;29;20020;-83
2021/12/02 09:10:42;;;;;;;0.82;0.82;;;4.50;99.90;;;;;;4920389;28;20039;-84
2021/12/02 09:13:08;;;;;;;0.88;0.73;;;3.50;99.90;;;;;;4916566;29;20042;-79
2021/12/02 09:15:36;;;;;;;1.83;0.75;;;4.60;99.90;;;;;;4928359;29;20031;-80
2021/12/02 09:18:02;;;;;;;1.42;1.20;;;4.70;99.90;;;;;;4932714;29;20030;-81
2021/12/02 09:20:28;;;;;;;2.80;0.77;;;4.60;99.90;;;;;;4928847;29;20028;-78
2021/12/02 09:22:53;;;;;;;2.63;1.05;;;4.70;99.90;;;;;;4920982;29;20042;-80
2021/12/02 09:25:19;;;;;;;0.60;0.60;;;4.70;99.90;;;;;;4924431;29;20030;-78
2021/12/02 09:27:46;;;;;;;0.28;0.28;;;4.70;99.90;;;;;;4940982;29;20059;-80
2021/12/02 09:30:14;;;;;;;0.65;0.65;;;4.70;99.90;;;;;;4947015;29;20027;-82
2021/12/02 09:32:46;;;;;;;3.22;0.68;;;4.80;99.90;;;;;;4957474;28;20055;-83
2021/12/02 09:35:16;;;;;;;1.35;0.52;;;3.10;99.90;;;;;;4962631;28;20035;-83
2021/12/02 09:40:19;;;;;;;0.88;0.85;;;4.80;99.90;;;;;;5070469;23;20032;-83
2021/12/02 09:42:45;;;;;;;1.38;1.30;;;5.20;99.90;;;;;;4947113;28;20036;-83
2021/12/02 09:45:38;;;;;;;0.75;0.75;;;5.10;99.90;;;;;;4947115;28;20063;-85
2021/12/02 09:48:08;;;;;;;0.35;0.35;;;5.10;99.90;;;;;;4947142;28;20016;-84
2021/12/02 09:50:38;;;;;;;1.75;0.63;;;1.90;99.90;;;;;;4944796;28;20030;-83
2021/12/02 09:53:15;;;;;;;0.20;0.20;;;5.70;99.90;;;;;;4963347;28;20008;-83
2021/12/02 09:58:26;;;;;;;10.38;1.15;;;5.10;99.90;;;;;;4963591;28;20027;-83
2021/12/02 10:00:59;;;;;;;0.75;0.75;;;5.00;99.90;;;;;;4963206;28;20076;-84
2021/12/02 10:06:14;;;;;;;0.85;0.60;;;5.70;99.90;;;;;;4962430;28;20095;-83
2021/12/02 10:08:55;;;;;;;1.67;0.65;;;5.60;99.90;;;;;;4944038;28;20035;-83
2021/12/02 10:14:17;;;;;;;7.13;0.60;;;5.60;99.90;;;;;;4963139;28;20063;-83
2021/12/02 10:16:46;;;;;;;0.40;0.40;;;5.50;99.90;;;;;;4946756;28;20016;-82
2021/12/02 10:58:40;;;;;;;0.47;0.38;;;5.30;99.90;;;;;;5543470;23;20059;-85
2021/12/02 11:14:12;;;;;;;0.57;0.57;;;5.40;99.90;;;;;;4922319;29;20040;-86
2021/12/02 11:16:38;;;;;;;0.63;0.40;;;3.80;99.90;;;;;;4923673;29;20049;-86
2021/12/02 11:19:22;;;;;;;0.80;0.73;;;5.00;99.90;;;;;;4923835;29;20024;-85
2021/12/02 11:21:48;;;;;;;1.35;0.50;;;3.80;99.90;;;;;;4939287;28;20025;-83
2021/12/02 11:24:32;;;;;;;0.55;0.55;;;2.70;99.90;;;;;;4939402;29;20045;-85
2021/12/02 11:27:15;;;;;;;0.30;0.30;;;4.80;99.90;;;;;;4907552;29;20122;-83
2021/12/02 11:33:27;;;;;;;0.20;0.20;;;4.60;99.90;;;;;;4921565;29;20028;-84
2021/12/02 11:35:53;;;;;;;0.20;0.20;;;0.60;99.90;;;;;;4917822;29;20260;-84
2021/12/02 11:38:23;;;;;;;0.20;0.20;;;3.60;99.90;;;;;;4907228;29;20028;-83
2021/12/02 11:40:50;;;;;;;;;;;4.00;99.90;;;;;;4907330;29;20032;-83
2021/12/02 11:43:18;;;;;;;0.13;0.13;;;3.90;99.90;;;;;;4907105;29;19919;-82
2021/12/02 11:45:47;;;;;;;0.32;0.32;;;3.50;99.90;;;;;;4907134;29;20037;-83
2021/12/02 11:48:19;;;;;;;0.20;0.20;;;0.70;99.90;;;;;;4891368;29;20028;-83
2021/12/02 11:50:47;;;;;;;0.20;0.20;;;2.70;99.90;;;;;;4922191;29;20005;-83
2021/12/02 11:53:14;;;;;;;0.10;0.10;;;3.80;99.90;;;;;;4907103;29;20064;-83
2021/12/02 11:55:43;;;;;;;0.10;0.10;;;3.30;99.90;;;;;;4923325;29;20041;-84
2021/12/02 11:58:12;;;;;;;0.80;0.60;;;4.00;99.90;;;;;;4906991;29;20013;-83
2021/12/02 12:00:47;;;;;;;0.30;0.30;;;3.60;99.90;;;;;;4906763;29;20024;-83
2021/12/02 12:03:18;;;;;;;1.45;1.35;;;3.60;99.90;;;;;;4906764;29;20053;-84
2021/12/02 12:06:10;;;;;;;1.10;0.20;;;1.80;99.90;;;;;;4922691;29;20016;-84
2021/12/02 12:08:38;;;;;;;0.13;0.13;;;5.90;99.90;;;;;;4904652;29;20040;-83
2021/12/02 12:11:25;;;;;;;1.70;0.57;;;3.30;99.90;;;;;;4906929;29;20017;-83
2021/12/02 12:13:57;;;;;;;0.30;0.30;;;3.90;99.90;;;;;;4938020;29;20057;-83
2021/12/02 12:16:32;;;;;;;0.28;0.28;;;3.20;99.90;;;;;;4906819;29;20100;-83
2021/12/02 12:19:41;;;;;;;1.02;1.02;;;3.80;99.90;;;;;;4907028;29;20017;-83
2021/12/02 12:22:13;;;;;;;0.40;0.40;;;4.10;99.90;;;;;;4906700;29;20125;-81
2021/12/02 12:24:50;;;;;;;1.08;0.45;;;5.00;99.90;;;;;;4922262;29;20071;-83
2021/12/02 12:27:32;;;;;;;0.30;0.30;;;6.00;99.90;;;;;;4922494;29;20066;-84
2021/12/02 12:30:24;;;;;;;0.50;0.38;;;4.10;99.90;;;;;;4921725;29;20028;-82
2021/12/02 12:33:01;;;;;;;0.45;0.40;;;4.00;99.90;;;;;;4937830;28;20028;-83
2021/12/02 12:38:32;;;;;;;0.60;0.60;;;2.00;99.90;;;;;;4920133;29;20041;-84
2021/12/02 12:41:10;;;;;;;0.75;0.38;;;3.70;99.90;;;;;;4906299;29;20020;-83
2021/12/02 12:43:48;;;;;;;0.40;0.38;;;3.80;99.90;;;;;;4906233;28;20040;-85
2021/12/02 12:46:23;;;;;;;0.10;0.10;;;4.00;99.90;;;;;;4905208;29;20012;-81
2021/12/02 12:48:49;;;;;;;0.55;0.55;;;3.70;99.90;;;;;;4904808;29;20040;-84
2021/12/02 12:51:20;;;;;;;0.30;0.30;;;5.50;99.90;;;;;;4905223;29;20009;-83
2021/12/02 12:53:50;;;;;;;0.08;0.08;;;3.20;99.90;;;;;;4921329;29;20033;-83
2021/12/02 12:56:16;;;;;;;;;;;3.20;99.90;;;;;;4903271;29;20043;-84
2021/12/02 12:59:03;;;;;;;0.10;0.10;;;3.00;99.90;;;;;;4904875;29;19911;-84
2021/12/02 13:01:29;;;;;;;0.10;0.10;;;2.90;99.90;;;;;;4907692;29;20040;-84
2021/12/02 13:04:11;;;;;;;0.10;0.10;;;2.90;99.90;;;;;;4941321;29;20036;-83
2021/12/02 13:07:14;;;;;;;0.20;0.20;;;3.20;99.90;;;;;;4941110;29;20032;-84
2021/12/02 13:09:47;;;;;;;0.25;0.25;;;3.20;99.90;;;;;;4909142;29;20092;-84
2021/12/02 13:12:18;;;;;;;0.93;0.68;;;3.50;99.90;;;;;;4939707;29;20494;-83
2021/12/02 13:14:49;;;;;;;0.25;0.25;;;3.00;99.90;;;;;;4890105;29;20052;-82
2021/12/02 13:17:38;;;;;;;0.20;0.20;;;3.20;99.90;;;;;;4920317;29;20034;-83
2021/12/02 13:20:48;;;;;;;0.25;0.25;;;2.90;99.90;;;;;;4888056;29;20037;-83
2021/12/02 13:23:36;;;;;;;0.40;0.20;;;2.80;99.90;;;;;;4906437;29;20040;-82
2021/12/02 13:26:07;;;;;;;0.10;0.10;;;2.90;99.90;;;;;;4890615;29;20041;-82
2021/12/02 13:28:42;;;;;;;0.10;0.10;;;2.70;99.90;;;;;;4890523;29;20025;-83
2021/12/02 13:31:12;;;;;;;0.30;0.30;;;2.80;99.90;;;;;;4905952;29;20037;-82
2021/12/02 13:33:51;;;;;;;0.30;0.30;;;2.90;99.90;;;;;;4887086;29;20064;-83
2021/12/02 13:41:25;;;;;;;0.30;0.30;;;2.70;99.90;;;;;;4952170;29;20066;-83
2021/12/02 13:43:53;;;;;;;0.28;0.28;;;2.90;99.90;;;;;;4939059;29;20027;-82
2021/12/02 13:46:41;;;;;;;0.32;0.32;;;2.90;99.90;;;;;;4948718;29;20038;-82
2021/12/02 13:49:13;;;;;;;2.17;0.85;;;2.70;99.90;;;;;;4960480;28;20018;-84
2021/12/02 13:55:04;;;;;;;0.70;0.50;;;2.30;99.90;;;;;;4960495;28;20063;-84
2021/12/02 13:57:36;;;;;;;0.80;0.68;;;2.80;99.90;;;;;;4925406;29;20038;-81
2021/12/02 14:00:18;;;;;;;0.20;0.20;;;3.50;99.90;;;;;;4931884;29;20027;-82
2021/12/02 14:02:51;;;;;;;0.15;0.15;;;2.80;99.90;;;;;;4957802;28;20067;-81
2021/12/02 14:05:20;;;;;;;0.50;0.50;;;2.80;99.90;;;;;;4937134;28;20047;-82
2021/12/02 14:07:48;;;;;;;0.60;0.60;;;3.00;99.90;;;;;;4956298;28;20015;-83
2021/12/02 14:10:17;;;;;;;1.20;0.68;;;2.80;99.90;;;;;;4942163;29;20023;-80
2021/12/02 14:12:58;;;;;;;0.50;0.50;;;2.80;99.90;;;;;;4943153;29;20067;-82
2021/12/02 14:15:29;;;;;;;0.30;0.30;;;2.80;99.90;;;;;;4942981;29;20063;-80
2021/12/02 14:18:05;;;;;;;0.60;0.43;;;2.80;99.90;;;;;;4959086;29;20268;-80
2021/12/02 14:20:43;;;;;;;0.65;0.65;;;2.80;99.90;;;;;;4958580;28;20043;-80
2021/12/02 14:23:11;;;;;;;2.03;0.63;;;2.80;99.90;;;;;;4950918;28;20500;-83
2021/12/02 14:25:39;;;;;;;0.70;0.70;;;2.80;99.90;;;;;;4956873;29;20411;-80
2021/12/02 14:28:16;;;;;;;0.40;0.40;;;2.80;99.90;;;;;;4972786;28;20112;-81
2021/12/02 14:30:49;;;;;;;0.73;0.73;;;2.80;99.90;;;;;;4946604;29;20548;-83
2021/12/02 14:33:17;;;;;;;1.13;0.60;;;-0.10;99.90;;;;;;4955328;28;20035;-85
2021/12/02 14:35:47;;;;;;;1.23;0.90;;;3.00;99.90;;;;;;4943822;29;20066;-92
2021/12/02 14:38:25;;;;;;;0.77;0.40;;;2.70;99.90;;;;;;4948213;29;20031;-92
2021/12/02 14:40:59;;;;;;;0.90;0.50;;;3.20;99.90;;;;;;4976469;28;20007;-83
2021/12/02 14:43:33;;;;;;;0.50;0.50;;;2.60;99.90;;;;;;4973807;23;20095;-82
2021/12/02 14:46:13;;;;;;;3.40;1.00;;;1.50;99.90;;;;;;4943362;28;20016;-83